Time;durP1;ratioP1;P1;durP2;ratioP2;P2;SDS_P1;SDS_P2;PMS_P1;PMS_P2;Temp;Humidity;BMP_temperature;BMP_pressure;BME280_temperature;BME280_humidity;BME280_pressure;Samples;Min_cycle;Max_cycle;Signal;HPM_P1;HPM_P2
2022/04/23 00:00:33;;;;;;;18.48;13.23;;;;;;;9.66;73.26;100384.47;5060134;28;20116;-75
2022/04/23 00:02:59;;;;;;;16.73;12.20;;;;;;;9.64;73.39;100387.28;5067449;28;20131;-70
2022/04/23 00:05:25;;;;;;;22.10;13.75;;;;;;;9.63;74.81;100382.00;5062402;28;20120;-79
2022/04/23 00:07:50;;;;;;;17.58;12.90;;;;;;;9.61;74.70;100389.41;5056801;28;20028;-70
2022/04/23 00:10:15;;;;;;;17.98;12.70;;;;;;;9.61;74.54;100381.25;5064040;28;20067;-78
2022/04/23 00:12:46;;;;;;;20.63;13.65;;;;;;;9.58;75.32;100386.91;5061911;28;20033;-71
2022/04/23 00:15:11;;;;;;;23.90;13.85;;;;;;;9.57;75.07;100396.03;5064616;28;20516;-74
2022/04/23 00:17:37;;;;;;;19.95;14.02;;;;;;;9.53;74.39;100384.53;5060899;28;20030;-71
2022/04/23 00:20:04;;;;;;;21.90;13.15;;;;;;;9.48;75.81;100386.75;5063105;28;20040;-70
2022/04/23 00:22:29;;;;;;;20.83;14.00;;;;;;;9.49;75.84;100385.75;5067955;28;20024;-71
2022/04/23 00:24:54;;;;;;;18.83;13.93;;;;;;;9.48;75.13;100392.16;5060585;28;20028;-71
2022/04/23 00:27:20;;;;;;;22.63;13.55;;;;;;;9.45;76.06;100384.25;5060320;28;20502;-75
2022/04/23 00:29:45;;;;;;;20.13;13.80;;;;;;;9.44;76.19;100380.66;5043519;28;20392;-71
2022/04/23 00:32:10;;;;;;;18.10;12.75;;;;;;;9.39;76.50;100382.88;5063824;28;20068;-78
2022/04/23 00:34:36;;;;;;;19.55;13.18;;;;;;;9.40;75.71;100381.00;5067851;28;20369;-74
2022/04/23 00:37:01;;;;;;;22.52;14.52;;;;;;;9.35;75.78;100384.06;5054952;28;20044;-70
2022/04/23 00:39:26;;;;;;;19.00;13.15;;;;;;;9.31;76.58;100382.56;5071801;28;20112;-78
2022/04/23 00:41:52;;;;;;;21.00;13.30;;;;;;;9.30;76.24;100379.97;5054349;28;20040;-78
2022/04/23 00:44:18;;;;;;;18.75;12.95;;;;;;;9.32;76.24;100381.56;5057185;28;20519;-75
2022/04/23 00:46:45;;;;;;;20.63;13.80;;;;;;;9.31;76.22;100379.84;5065782;28;20043;-69
2022/04/23 00:49:11;;;;;;;22.73;14.48;;;;;;;9.27;76.28;100372.03;5069580;28;20027;-70
2022/04/23 00:51:39;;;;;;;19.88;12.95;;;;;;;9.28;76.31;100385.53;5063922;28;20028;-74
2022/04/23 00:54:09;;;;;;;21.20;14.30;;;;;;;9.27;76.78;100382.91;5062389;28;20043;-71
2022/04/23 00:56:35;;;;;;;19.48;13.75;;;;;;;9.25;76.33;100379.44;5062569;28;20044;-77
2022/04/23 00:59:06;;;;;;;20.48;14.57;;;;;;;9.20;76.85;100374.38;5061642;28;20025;-78
2022/04/23 01:01:31;;;;;;;21.95;15.13;;;;;;;9.18;77.33;100385.31;5054624;28;20029;-75
2022/04/23 01:03:57;;;;;;;21.83;14.70;;;;;;;9.19;77.84;100391.63;5069630;28;20048;-70
2022/04/23 01:06:24;;;;;;;22.25;14.70;;;;;;;9.14;77.56;100378.41;5056357;28;20129;-70
2022/04/23 01:08:50;;;;;;;27.48;15.82;;;;;;;9.11;77.45;100375.03;5060188;28;20060;-79
2022/04/23 01:11:16;;;;;;;22.75;15.80;;;;;;;9.09;78.04;100374.28;5045901;28;20174;-78
2022/04/23 01:13:44;;;;;;;21.23;14.05;;;;;;;9.09;77.56;100371.56;5068065;28;20395;-78
2022/04/23 01:16:11;;;;;;;24.95;16.15;;;;;;;9.14;77.31;100383.84;5062694;28;20036;-74
2022/04/23 01:18:42;;;;;;;22.02;15.25;;;;;;;9.08;77.77;100378.84;5066935;28;20017;-69
2022/04/23 01:21:10;;;;;;;23.40;14.95;;;;;;;9.08;77.51;100378.84;5065640;28;20035;-69
2022/04/23 01:23:40;;;;;;;23.95;15.68;;;;;;;9.06;77.97;100377.22;5066273;28;20029;-70
2022/04/23 01:26:07;;;;;;;23.25;16.13;;;;;;;9.05;78.19;100381.81;5068627;28;20047;-74
2022/04/23 01:28:34;;;;;;;25.20;15.80;;;;;;;9.03;78.25;100374.72;5069075;28;20511;-78
2022/04/23 01:31:00;;;;;;;24.33;16.25;;;;;;;9.05;78.65;100380.94;5062200;28;20037;-75
2022/04/23 01:33:25;;;;;;;21.45;15.05;;;;;;;9.05;77.54;100378.22;5070291;28;20036;-78
2022/04/23 01:35:51;;;;;;;26.00;16.33;;;;;;;9.05;78.27;100380.94;5065118;28;20047;-78
2022/04/23 01:38:16;;;;;;;23.55;16.17;;;;;;;9.02;78.69;100387.44;5072216;28;20490;-78
2022/04/23 01:40:42;;;;;;;24.00;16.80;;;;;;;8.99;79.22;100382.22;5054032;28;20079;-72
2022/04/23 01:43:08;;;;;;;23.15;15.43;;;;;;;8.96;78.32;100379.75;5068874;28;20043;-71
2022/04/23 01:45:34;;;;;;;29.50;17.65;;;;;;;8.96;78.74;100376.19;5061049;28;20094;-70
2022/04/23 01:48:00;;;;;;;25.90;18.17;;;;;;;8.93;79.12;100386.25;5072277;28;20028;-77
2022/04/23 01:50:25;;;;;;;28.27;17.63;;;;;;;8.90;78.67;100388.31;5067075;28;20392;-70
2022/04/23 01:52:50;;;;;;;25.13;17.55;;;;;;;8.84;79.46;100389.66;5067211;28;20433;-71
2022/04/23 01:55:16;;;;;;;27.30;17.67;;;;;;;8.82;79.70;100390.75;5069545;28;20081;-77
2022/04/23 01:57:41;;;;;;;23.88;17.05;;;;;;;8.80;79.34;100384.56;5069911;28;20123;-75
2022/04/23 02:00:10;;;;;;;27.40;17.95;;;;;;;8.79;79.15;100390.97;5059673;28;20033;-78
2022/04/23 02:02:37;;;;;;;28.05;17.98;;;;;;;8.75;78.85;100384.03;5060605;28;20041;-69
2022/04/23 02:05:04;;;;;;;28.13;17.63;;;;;;;8.73;79.58;100386.84;5056692;28;20040;-79
2022/04/23 02:07:29;;;;;;;31.10;18.70;;;;;;;8.74;80.77;100399.44;5064512;28;20035;-74
2022/04/23 02:09:55;;;;;;;30.80;18.75;;;;;;;8.68;80.58;100381.75;5057617;28;20033;-69
2022/04/23 02:12:20;;;;;;;27.08;17.90;;;;;;;8.73;79.66;100386.84;5068288;28;20119;-71
2022/04/23 02:14:46;;;;;;;30.52;19.35;;;;;;;8.72;80.60;100376.09;5065569;28;20045;-79
2022/04/23 02:17:12;;;;;;;38.88;20.48;;;;;;;8.68;80.00;100389.03;5052396;28;20050;-78
2022/04/23 02:19:37;;;;;;;29.13;18.52;;;;;;;8.69;80.17;100382.63;5069601;28;20483;-73
2022/04/23 02:22:03;;;;;;;28.40;18.55;;;;;;;8.67;80.31;100390.00;5069900;28;20043;-69
2022/04/23 02:24:28;;;;;;;28.85;19.27;;;;;;;8.67;80.66;100388.16;5055256;28;20029;-78
2022/04/23 02:26:53;;;;;;;32.58;20.00;;;;;;;8.71;81.08;100396.06;5060149;28;20044;-78
2022/04/23 02:29:19;;;;;;;31.15;19.58;;;;;;;8.74;80.40;100385.00;5074084;28;20107;-69
2022/04/23 02:31:45;;;;;;;32.28;20.13;;;;;;;8.72;80.54;100385.13;5060591;28;20094;-69
2022/04/23 02:34:10;;;;;;;31.75;20.90;;;;;;;8.71;80.69;100393.34;5071099;28;20040;-69
2022/04/23 02:36:36;;;;;;;32.58;20.33;;;;;;;8.71;81.28;100387.94;5069436;28;20115;-69
2022/04/23 02:39:02;;;;;;;32.30;19.90;;;;;;;8.68;80.02;100387.19;5068432;28;20021;-69
2022/04/23 02:41:28;;;;;;;31.27;20.40;;;;;;;8.66;80.36;100385.53;5064022;28;20373;-73
2022/04/23 02:43:54;;;;;;;31.30;20.52;;;;;;;8.67;80.96;100388.16;5068649;28;20343;-70
2022/04/23 02:46:19;;;;;;;32.13;20.85;;;;;;;8.65;80.44;100381.97;5062906;28;20552;-69
2022/04/23 02:48:45;;;;;;;33.67;20.80;;;;;;;8.66;81.06;100388.25;5065656;28;20040;-75
2022/04/23 02:51:15;;;;;;;34.25;20.30;;;;;;;8.66;81.24;100393.69;5062834;28;20012;-71
2022/04/23 02:53:42;;;;;;;33.28;20.58;;;;;;;8.63;81.66;100383.94;5059396;28;20516;-69
2022/04/23 02:56:13;;;;;;;35.50;21.17;;;;;;;8.60;81.41;100381.44;5067679;28;20036;-72
2022/04/23 02:58:41;;;;;;;37.83;20.98;;;;;;;8.61;81.52;100385.88;5056023;28;20115;-74
2022/04/23 03:01:10;;;;;;;36.50;22.35;;;;;;;8.67;81.67;100380.03;5065358;28;20081;-74
2022/04/23 03:03:38;;;;;;;31.63;20.98;;;;;;;8.66;81.26;100385.53;5062976;28;20033;-79
2022/04/23 03:06:07;;;;;;;34.83;22.20;;;;;;;8.64;81.51;100382.09;5068069;28;20446;-69
2022/04/23 03:08:35;;;;;;;33.08;21.10;;;;;;;8.60;82.09;100373.31;5069650;28;20039;-71
2022/04/23 03:11:00;;;;;;;34.65;21.77;;;;;;;8.61;81.82;100377.75;5064010;28;20032;-75
2022/04/23 03:13:25;;;;;;;32.60;21.27;;;;;;;8.60;81.35;100369.72;5062045;28;20028;-70
2022/04/23 03:15:51;;;;;;;35.80;22.08;;;;;;;8.57;82.03;100369.94;5067571;28;20033;-74
2022/04/23 03:18:17;;;;;;;36.17;24.52;;;;;;;8.57;82.66;100372.66;5066207;28;20017;-71
2022/04/23 03:20:44;;;;;;;37.10;22.80;;;;;;;8.51;82.07;100373.97;5061483;28;20121;-71
2022/04/23 03:23:11;;;;;;;34.40;22.13;;;;;;;8.50;82.59;100372.22;5063433;28;20039;-78
2022/04/23 03:25:37;;;;;;;33.65;21.23;;;;;;;8.50;82.30;100379.50;5070677;28;20395;-71
2022/04/23 03:28:03;;;;;;;34.53;21.23;;;;;;;8.47;81.82;100377.88;5060762;28;20033;-74
2022/04/23 03:30:28;;;;;;;37.63;23.08;;;;;;;8.42;82.75;100378.19;5067781;28;20042;-70
2022/04/23 03:32:54;;;;;;;39.58;22.95;;;;;;;8.41;82.83;100370.19;5065156;28;20032;-78
2022/04/23 03:35:20;;;;;;;35.33;22.00;;;;;;;8.41;82.46;100373.75;5068575;28;20032;-78
2022/04/23 03:37:45;;;;;;;36.92;22.17;;;;;;;8.39;83.11;100372.13;5063806;28;20109;-69
2022/04/23 03:40:12;;;;;;;33.08;21.80;;;;;;;8.39;81.60;100369.41;5056617;28;20119;-78
2022/04/23 03:42:39;;;;;;;39.00;23.25;;;;;;;8.35;82.31;100367.88;5067872;28;20488;-69
2022/04/23 03:45:05;;;;;;;37.05;23.33;;;;;;;8.33;82.59;100369.81;5058301;28;20029;-71
2022/04/23 03:47:32;;;;;;;35.90;23.58;;;;;;;8.30;83.56;100357.38;5063994;28;20112;-78
2022/04/23 03:50:03;;;;;;;38.83;22.42;;;;;;;8.27;83.47;100364.84;5065116;28;20156;-69
2022/04/23 03:52:28;;;;;;;35.08;22.05;;;;;;;8.26;83.84;100361.25;5066173;28;20067;-71
2022/04/23 03:54:53;;;;;;;37.13;22.35;;;;;;;8.25;83.57;100361.34;5064885;28;20452;-73
2022/04/23 03:57:19;;;;;;;39.50;23.92;;;;;;;8.23;83.94;100360.59;5064303;28;20504;-72
2022/04/23 03:59:44;;;;;;;38.17;21.83;;;;;;;8.26;83.56;100360.41;5048557;28;20075;-71
2022/04/23 04:02:09;;;;;;;39.50;24.27;;;;;;;8.23;83.44;100356.06;5051006;28;20029;-78
2022/04/23 04:04:35;;;;;;;37.17;23.05;;;;;;;8.22;84.32;100354.31;5067231;28;20040;-77
2022/04/23 04:07:00;;;;;;;38.13;22.77;;;;;;;8.21;83.22;100358.00;5062715;28;20032;-76
2022/04/23 04:09:27;;;;;;;39.35;23.88;;;;;;;8.20;84.46;100356.25;5069951;28;20039;-79
2022/04/23 04:12:01;;;;;;;39.67;23.58;;;;;;;8.21;83.95;100351.69;5068027;28;20048;-74
2022/04/23 04:14:31;;;;;;;41.75;23.13;;;;;;;8.21;83.54;100352.59;5062426;28;20052;-79
2022/04/23 04:17:02;;;;;;;39.15;23.30;;;;;;;8.16;84.14;100344.78;5049787;28;20082;-71
2022/04/23 04:19:28;;;;;;;38.60;24.10;;;;;;;8.19;84.54;100349.09;5077970;28;20040;-71
2022/04/23 04:21:54;;;;;;;37.38;22.10;;;;;;;8.18;84.48;100345.53;5067120;28;20532;-78
2022/04/23 04:24:20;;;;;;;43.40;24.42;;;;;;;8.20;84.26;100345.41;5066256;28;20535;-71
2022/04/23 04:26:47;;;;;;;42.53;23.92;;;;;;;8.21;84.64;100346.28;5055696;28;20127;-78
2022/04/23 04:29:13;;;;;;;39.17;23.50;;;;;;;8.22;84.74;100343.47;5069687;28;20045;-78
2022/04/23 04:31:48;;;;;;;36.42;22.17;;;;;;;8.20;85.00;100345.41;5064404;28;20036;-72
2022/04/23 04:34:28;;;;;;;41.60;23.40;;;;;;;8.20;84.65;100345.41;5055313;28;20028;-69
2022/04/23 04:37:08;;;;;;;46.28;24.25;;;;;;;8.25;84.87;100350.50;5064319;28;20032;-73
2022/04/23 04:39:36;;;;;;;38.65;24.38;;;;;;;8.25;85.15;100345.94;5068817;28;20552;-70
2022/04/23 04:42:03;;;;;;;41.42;25.05;;;;;;;8.25;84.56;100351.38;5065671;28;20039;-73
2022/04/23 04:44:28;;;;;;;34.10;21.73;;;;;;;8.28;84.89;100344.88;5047682;28;20516;-76
2022/04/23 04:46:54;;;;;;;37.78;23.63;;;;;;;8.29;84.69;100350.19;5044809;28;20066;-71
2022/04/23 04:49:19;;;;;;;41.28;23.23;;;;;;;8.31;84.46;100350.97;5067467;28;20530;-72
2022/04/23 04:51:45;;;;;;;40.70;24.48;;;;;;;8.35;85.11;100352.47;5061555;28;20086;-70
2022/04/23 04:54:10;;;;;;;39.65;24.25;;;;;;;8.37;84.54;100346.97;5056667;28;20091;-73
2022/04/23 04:56:35;;;;;;;38.42;23.98;;;;;;;8.40;84.43;100352.19;5067596;28;20533;-70
2022/04/23 04:59:02;;;;;;;44.88;24.35;;;;;;;8.40;84.83;100360.31;5067643;28;20517;-73
2022/04/23 05:01:28;;;;;;;37.75;22.50;;;;;;;8.43;84.54;100358.22;5059954;28;20256;-74
2022/04/23 05:03:54;;;;;;;43.58;24.02;;;;;;;8.48;84.47;100360.63;5061177;28;20044;-72
2022/04/23 05:06:20;;;;;;;43.70;24.10;;;;;;;8.50;83.96;100364.09;5056308;28;20434;-72
2022/04/23 05:08:45;;;;;;;39.92;24.55;;;;;;;8.50;84.43;100365.94;5069159;28;20036;-78
2022/04/23 05:11:11;;;;;;;40.80;23.98;;;;;;;8.54;84.54;100371.03;5068435;28;20051;-72
2022/04/23 05:13:37;;;;;;;41.42;23.65;;;;;;;8.57;83.62;100367.22;5063267;28;20419;-70
2022/04/23 05:16:05;;;;;;;40.35;23.15;;;;;;;8.60;84.27;100367.03;5062652;28;20036;-70
2022/04/23 05:18:30;;;;;;;42.47;25.27;;;;;;;8.62;84.24;100365.91;5062167;28;20032;-74
2022/04/23 05:20:56;;;;;;;39.30;24.20;;;;;;;8.69;83.63;100366.34;5069017;28;20028;-71
2022/04/23 05:23:21;;;;;;;37.55;23.92;;;;;;;8.72;83.83;100355.28;5053278;28;20016;-74
2022/04/23 05:25:46;;;;;;;36.75;22.42;;;;;;;8.74;83.97;100358.75;5063176;28;20064;-78
2022/04/23 05:28:12;;;;;;;38.97;23.13;;;;;;;8.77;83.64;100355.81;5070231;28;20064;-78
2022/04/23 05:30:38;;;;;;;42.85;25.38;;;;;;;8.82;83.83;100359.06;5065223;28;20067;-74
2022/04/23 05:33:05;;;;;;;39.38;24.92;;;;;;;8.87;83.71;100358.72;5063406;28;20028;-74
2022/04/23 05:35:30;;;;;;;38.08;23.67;;;;;;;8.93;83.47;100363.69;5063397;28;20511;-73
2022/04/23 05:37:55;;;;;;;37.42;23.13;;;;;;;8.94;83.45;100358.16;5071836;28;20072;-69
2022/04/23 05:40:21;;;;;;;38.42;23.50;;;;;;;9.00;83.17;100365.00;5072906;28;20460;-77
2022/04/23 05:42:46;;;;;;;39.17;24.05;;;;;;;9.05;83.16;100359.22;5072884;28;20489;-69
2022/04/23 05:45:11;;;;;;;36.70;22.80;;;;;;;9.13;82.70;100363.09;5063099;28;20435;-78
2022/04/23 05:47:42;;;;;;;37.88;23.77;;;;;;;9.20;82.87;100360.78;5068531;28;20029;-78
2022/04/23 05:50:09;;;;;;;43.47;24.50;;;;;;;9.25;82.56;100363.16;5068896;28;20037;-69
2022/04/23 05:52:36;;;;;;;38.30;23.08;;;;;;;9.31;82.40;100362.69;5070967;28;20109;-73
2022/04/23 05:55:01;;;;;;;34.63;22.88;;;;;;;9.35;82.43;100370.50;5066045;28;20499;-73
2022/04/23 05:57:27;;;;;;;37.83;23.95;;;;;;;9.42;81.13;100360.91;5068712;28;20025;-73
2022/04/23 05:59:52;;;;;;;40.65;25.00;;;;;;;9.49;81.92;100369.47;5069480;28;20051;-77
2022/04/23 06:02:17;;;;;;;37.88;23.05;;;;;;;9.56;80.76;100359.88;5049223;28;20045;-68
2022/04/23 06:04:45;;;;;;;42.38;25.10;;;;;;;9.66;81.33;100355.47;5070643;28;20032;-73
2022/04/23 06:07:11;;;;;;;34.95;24.27;;;;;;;9.74;81.34;100348.56;5062982;28;20036;-68
2022/04/23 06:09:36;;;;;;;38.10;24.40;;;;;;;9.80;81.62;100361.69;5072466;28;20396;-71
2022/04/23 06:12:01;;;;;;;37.28;22.38;;;;;;;9.82;80.57;100348.84;5064741;28;20032;-77
2022/04/23 06:14:27;;;;;;;36.53;22.13;;;;;;;9.89;80.17;100356.41;5069759;28;20044;-73
2022/04/23 06:16:52;;;;;;;31.02;21.45;;;;;;;9.96;80.41;100356.78;5065669;28;20819;-69
2022/04/23 06:19:17;;;;;;;34.30;22.73;;;;;;;10.02;80.66;100350.00;5066015;28;20036;-77
2022/04/23 06:21:43;;;;;;;35.45;23.45;;;;;;;10.07;80.48;100348.69;5055697;28;20039;-68
2022/04/23 06:24:08;;;;;;;36.97;22.92;;;;;;;10.16;79.25;100353.38;5064179;28;20037;-72
2022/04/23 06:26:33;;;;;;;33.65;22.02;;;;;;;10.27;78.95;100351.72;5071341;28;20035;-68
2022/04/23 06:28:59;;;;;;;35.45;21.80;;;;;;;10.30;78.70;100355.03;5065348;28;20059;-73
2022/04/23 06:31:24;;;;;;;34.90;22.25;;;;;;;10.38;79.14;100357.16;5066117;28;20032;-70
2022/04/23 06:33:49;;;;;;;34.45;22.58;;;;;;;10.45;78.73;100359.28;5065962;28;20494;-77
2022/04/23 06:36:15;;;;;;;36.75;23.88;;;;;;;10.50;78.52;100352.59;5069772;28;20041;-68
2022/04/23 06:38:40;;;;;;;34.28;21.35;;;;;;;10.55;78.00;100353.09;5071706;28;20111;-69
2022/04/23 06:41:05;;;;;;;36.10;22.95;;;;;;;10.75;77.47;100357.78;5071143;28;20039;-71
2022/04/23 06:43:31;;;;;;;35.38;23.10;;;;;;;11.04;76.63;100340.94;5065742;28;20036;-72
2022/04/23 06:46:01;;;;;;;35.08;22.17;;;;;;;11.06;76.28;100350.72;5066646;28;20028;-70
2022/04/23 06:48:26;;;;;;;35.50;21.55;;;;;;;11.09;75.66;100355.88;5068073;28;20113;-73
2022/04/23 06:50:52;;;;;;;30.65;20.65;;;;;;;11.14;75.55;100342.75;5069513;28;20033;-70
2022/04/23 06:53:17;;;;;;;31.77;20.60;;;;;;;11.36;74.79;100343.69;5070845;28;20036;-75
2022/04/23 06:55:43;;;;;;;36.03;21.42;;;;;;;11.48;74.25;100337.22;5070056;28;20037;-77
2022/04/23 06:58:08;;;;;;;34.40;21.85;;;;;;;11.46;74.99;100344.66;5065061;28;20032;-70
2022/04/23 07:00:33;;;;;;;33.67;22.27;;;;;;;11.50;75.75;100348.84;5069908;28;20056;-71
2022/04/23 07:02:59;;;;;;;37.38;23.55;;;;;;;11.57;74.88;100341.91;5067145;28;20047;-71
2022/04/23 07:05:27;;;;;;;31.40;22.08;;;;;;;11.59;74.87;100336.31;5069150;28;20142;-70
2022/04/23 07:08:00;;;;;;;32.58;21.52;;;;;;;11.63;73.79;100330.47;5071432;28;20029;-72
2022/04/23 07:10:27;;;;;;;31.95;21.48;;;;;;;11.66;73.85;100330.22;5070658;28;20504;-68
2022/04/23 07:12:53;;;;;;;33.20;22.17;;;;;;;11.62;72.75;100331.47;5069079;28;20040;-76
2022/04/23 07:15:19;;;;;;;33.47;22.65;;;;;;;11.65;73.44;100325.75;5067216;28;20078;-71
2022/04/23 07:17:46;;;;;;;30.23;21.02;;;;;;;11.70;72.94;100331.69;5060198;28;20461;-68
2022/04/23 07:20:12;;;;;;;31.50;21.63;;;;;;;11.76;72.92;100335.75;5049811;28;20024;-68
2022/04/23 07:22:37;;;;;;;38.47;22.35;;;;;;;11.82;73.65;100331.63;5067340;28;20058;-68
2022/04/23 07:25:03;;;;;;;34.20;22.25;;;;;;;11.89;73.21;100327.41;5070481;28;20073;-71
2022/04/23 07:27:29;;;;;;;34.30;21.70;;;;;;;11.92;71.98;100325.28;5068250;28;20044;-75
2022/04/23 07:29:54;;;;;;;33.05;20.88;;;;;;;11.96;72.64;100321.28;5068838;28;20488;-77
2022/04/23 07:32:21;;;;;;;29.98;22.05;;;;;;;12.02;70.90;100316.28;5071538;28;20031;-72
2022/04/23 07:37:33;;;;;;;31.15;21.45;;;;;;;12.21;71.45;100310.97;5085983;28;20369;-76
2022/04/23 07:40:12;;;;;;;33.97;21.77;;;;;;;12.35;71.42;100313.34;5070681;28;20044;-76
2022/04/23 07:42:37;;;;;;;29.50;21.33;;;;;;;12.45;70.12;100327.03;5065446;28;20041;-73
2022/04/23 07:45:04;;;;;;;29.25;20.90;;;;;;;12.51;70.42;100313.72;5067600;28;20032;-70
2022/04/23 07:47:29;;;;;;;29.42;19.95;;;;;;;12.70;70.01;100312.94;5071052;28;20036;-77
2022/04/23 07:49:55;;;;;;;32.72;20.25;;;;;;;12.91;68.58;100309.25;5062962;28;20037;-76
2022/04/23 07:52:21;;;;;;;28.67;19.98;;;;;;;13.21;68.93;100320.13;5068887;28;20037;-69
2022/04/23 07:54:46;;;;;;;27.27;19.23;;;;;;;13.41;66.92;100314.69;5063878;28;20024;-77
2022/04/23 07:57:12;;;;;;;30.67;21.73;;;;;;;13.55;68.13;100314.28;5063594;28;20063;-70
2022/04/23 07:59:42;;;;;;;31.05;20.63;;;;;;;13.75;67.25;100309.66;5064781;28;20437;-77
2022/04/23 08:02:08;;;;;;;28.08;20.75;;;;;;;13.96;66.23;100304.03;5060589;28;20052;-68
2022/04/23 08:04:34;;;;;;;25.85;19.45;;;;;;;14.10;64.51;100309.06;5063160;28;20035;-72
2022/04/23 08:06:59;;;;;;;30.30;19.73;;;;;;;14.19;64.76;100310.91;5062614;28;20396;-71
2022/04/23 08:09:25;;;;;;;26.20;19.20;;;;;;;14.25;63.64;100304.84;5063938;28;20027;-76
2022/04/23 08:11:50;;;;;;;27.08;19.20;;;;;;;14.24;62.82;100302.25;5067015;28;20032;-72
2022/04/23 08:14:16;;;;;;;25.23;18.98;;;;;;;14.26;64.75;100294.75;5064721;28;20064;-76
2022/04/23 08:16:42;;;;;;;27.17;19.70;;;;;;;14.40;65.48;100288.81;5043484;28;20567;-76
2022/04/23 08:19:08;;;;;;;138.85;25.80;;;;;;;14.49;62.27;100287.94;5068895;28;20111;-75
2022/04/23 08:21:34;;;;;;;64.95;23.20;;;;;;;14.58;62.96;100282.56;5067433;28;20451;-72
2022/04/23 08:24:00;;;;;;;27.08;19.48;;;;;;;14.76;61.74;100286.25;5064360;28;20039;-75
2022/04/23 08:26:25;;;;;;;26.30;19.10;;;;;;;14.89;62.45;100284.00;5054652;28;20469;-70
2022/04/23 08:31:34;;;;;;;25.02;17.20;;;;;;;15.13;61.65;100279.81;5059064;28;20052;-74
2022/04/23 08:34:02;;;;;;;24.38;18.50;;;;;;;15.29;58.98;100274.50;5068414;28;20070;-69
2022/04/23 08:36:36;;;;;;;25.95;19.52;;;;;;;15.44;59.57;100277.59;5061043;28;20589;-68
2022/04/23 08:39:06;;;;;;;26.67;18.73;;;;;;;15.57;59.54;100275.28;5072117;28;20020;-68
2022/04/23 08:41:34;;;;;;;32.20;19.98;;;;;;;15.61;58.02;100276.69;5078722;28;20089;-76
2022/04/23 08:44:07;;;;;;;23.42;17.67;;;;;;;15.53;56.97;100287.63;5067402;28;20087;-69
2022/04/23 08:46:40;;;;;;;28.10;18.42;;;;;;;15.54;57.76;100270.13;5060649;28;20028;-68
2022/04/23 08:49:09;;;;;;;25.38;17.90;;;;;;;15.57;58.21;100278.91;5067946;28;20496;-67
2022/04/23 08:51:36;;;;;;;30.27;19.83;;;;;;;15.54;57.99;100284.72;5066493;28;20040;-76
2022/04/23 08:54:07;;;;;;;25.95;18.77;;;;;;;15.54;57.41;100287.44;5059677;28;20041;-69
2022/04/23 08:56:38;;;;;;;29.95;19.60;;;;;;;15.76;57.50;100288.88;5059016;28;20035;-69
2022/04/23 08:59:06;;;;;;;29.33;17.77;;;;;;;16.02;56.27;100288.06;5063091;28;20093;-73
2022/04/23 09:01:34;;;;;;;25.35;19.42;;;;;;;16.18;55.86;100285.44;5053838;28;20013;-69
2022/04/23 09:04:01;;;;;;;27.90;19.80;;;;;;;16.37;57.10;100286.22;5068184;28;20036;-72
2022/04/23 09:06:37;;;;;;;26.55;19.10;;;;;;;16.23;56.91;100280.31;5055235;28;20035;-70
2022/04/23 09:09:20;;;;;;;26.25;20.40;;;;;;;16.37;56.25;100283.47;5066438;28;20069;-69
2022/04/23 09:11:56;;;;;;;29.50;19.60;;;;;;;16.65;56.62;100292.41;5067417;28;20048;-72
2022/04/23 09:14:30;;;;;;;31.63;20.13;;;;;;;16.66;55.51;100285.88;5067525;28;20474;-68
2022/04/23 09:25:35;;;;;;;30.73;22.75;;;;;;;15.89;58.00;100298.56;5068236;28;20040;-73
2022/04/23 09:28:20;;;;;;;26.77;19.33;;;;;;;15.85;57.13;100303.50;5067153;28;20032;-75
2022/04/23 09:30:51;;;;;;;30.88;22.25;;;;;;;15.83;55.82;100297.34;5055018;28;20041;-73
2022/04/23 09:33:28;;;;;;;30.35;22.65;;;;;;;15.87;57.61;100292.41;5064540;28;20059;-68
2022/04/23 09:35:58;;;;;;;30.92;22.35;;;;;;;16.11;57.47;100299.94;5067153;28;20042;-73
2022/04/23 09:38:24;;;;;;;33.58;22.00;;;;;;;16.23;55.58;100298.69;5069131;28;20029;-68
2022/04/23 09:40:57;;;;;;;31.08;22.33;;;;;;;16.37;55.72;100292.59;5069037;28;20021;-69
2022/04/23 09:43:28;;;;;;;29.17;22.55;;;;;;;16.81;56.45;100295.25;5061311;28;20025;-72
2022/04/23 09:46:04;;;;;;;32.38;23.85;;;;;;;17.05;54.24;100289.84;5053218;28;20036;-67
2022/04/23 09:48:30;;;;;;;30.23;23.83;;;;;;;17.56;55.38;100295.28;5062736;28;20056;-69
2022/04/23 09:50:57;;;;;;;34.38;24.25;;;;;;;17.68;52.36;100293.94;5063415;28;20085;-69
2022/04/23 09:53:25;;;;;;;29.27;22.50;;;;;;;17.54;53.14;100281.72;5067477;28;20488;-75
2022/04/23 09:55:50;;;;;;;31.92;24.65;;;;;;;17.74;53.27;100293.28;5063215;28;20067;-72
2022/04/23 09:58:16;;;;;;;53.05;25.25;;;;;;;18.02;52.14;100287.44;5070958;28;20020;-67
2022/04/23 10:00:49;;;;;;;30.05;23.70;;;;;;;18.31;51.94;100284.97;5066512;28;20044;-73
2022/04/23 10:03:15;;;;;;;32.60;26.35;;;;;;;18.46;50.62;100276.00;5062905;28;20036;-69
2022/04/23 10:05:45;;;;;;;32.83;24.98;;;;;;;18.55;49.89;100269.41;5069389;28;20425;-68
2022/04/23 10:08:21;;;;;;;36.67;26.20;;;;;;;18.53;50.53;100282.53;5086291;28;20082;-75
2022/04/23 10:11:10;;;;;;;34.92;25.55;;;;;;;18.39;49.54;100288.75;5067529;28;20101;-69
2022/04/23 10:13:40;;;;;;;31.27;23.23;;;;;;;18.30;48.51;100266.75;5068557;28;20055;-73
2022/04/23 10:16:07;;;;;;;32.22;24.88;;;;;;;17.90;49.14;100278.66;5062546;28;20033;-68
2022/04/23 10:18:38;;;;;;;28.20;23.33;;;;;;;17.72;51.02;100270.56;5062276;28;20164;-76
2022/04/23 10:21:08;;;;;;;38.72;24.88;;;;;;;18.01;51.97;100259.06;5057566;28;20036;-70
2022/04/23 10:23:43;;;;;;;29.65;24.40;;;;;;;18.17;50.71;100258.16;5068684;28;20527;-69
2022/04/23 10:26:51;;;;;;;34.35;24.77;;;;;;;18.29;51.78;100259.53;5070999;28;20032;-71
2022/04/23 10:29:23;;;;;;;31.10;23.52;;;;;;;18.16;51.45;100264.69;4989690;28;20485;-72
2022/04/23 10:32:16;;;;;;;31.90;24.73;;;;;;;18.44;50.33;100267.06;4969666;28;20128;-73
2022/04/23 10:34:43;;;;;;;30.13;24.40;;;;;;;18.65;48.18;100259.03;5045228;28;20048;-69
2022/04/23 10:37:22;;;;;;;34.47;25.75;;;;;;;18.79;49.50;100252.84;5069611;28;20115;-72
2022/04/23 10:39:50;;;;;;;35.88;26.58;;;;;;;18.74;49.13;100249.75;5070302;28;20035;-75
2022/04/23 10:42:17;;;;;;;36.28;26.95;;;;;;;18.79;49.26;100258.38;5070575;28;20043;-73
2022/04/23 10:44:44;;;;;;;29.95;24.77;;;;;;;18.92;49.74;100256.91;5069363;28;20033;-71
2022/04/23 10:47:30;;;;;;;34.55;26.40;;;;;;;19.18;48.76;100273.16;5060508;28;20029;-70
2022/04/23 10:50:24;;;;;;;35.90;25.40;;;;;;;19.02;49.03;100266.66;5065599;28;20033;-68
2022/04/23 10:52:50;;;;;;;43.55;25.75;;;;;;;18.80;48.58;100268.34;5071295;28;20036;-66
2022/04/23 10:55:17;;;;;;;34.60;25.10;;;;;;;18.73;48.87;100263.72;5067528;28;20089;-75
2022/04/23 10:57:57;;;;;;;33.42;26.38;;;;;;;18.53;49.10;100266.84;5069967;28;20438;-68
2022/04/23 11:00:30;;;;;;;33.63;25.75;;;;;;;18.52;50.55;100256.88;5066186;28;20097;-69
2022/04/23 11:02:56;;;;;;;35.17;26.30;;;;;;;18.34;49.20;100262.59;5061658;28;20123;-68
2022/04/23 11:13:48;;;;;;;35.15;25.33;;;;;;;18.38;48.55;100249.34;5057230;28;20553;-69
2022/04/23 11:16:20;;;;;;;30.90;23.77;;;;;;;18.40;48.99;100250.00;5060925;28;20111;-68
2022/04/23 11:18:51;;;;;;;34.58;25.83;;;;;;;18.27;49.00;100250.56;5060307;28;20062;-73
2022/04/23 11:21:21;;;;;;;32.78;24.67;;;;;;;18.01;50.12;100241.69;5063459;28;20107;-76
2022/04/23 11:23:47;;;;;;;32.47;24.98;;;;;;;17.93;49.69;100245.28;5055804;28;20044;-75
2022/04/23 11:26:22;;;;;;;34.90;24.95;;;;;;;17.75;50.19;100241.84;5068834;28;20492;-73
2022/04/23 11:28:56;;;;;;;32.72;25.80;;;;;;;17.95;50.33;100242.34;5067702;28;20040;-68
2022/04/23 11:31:21;;;;;;;36.05;23.27;;;;;;;18.21;50.25;100237.50;5068681;28;20040;-71
2022/04/23 11:33:58;;;;;;;28.15;23.45;;;;;;;18.51;50.93;100238.63;5067386;28;20074;-68
2022/04/23 11:36:33;;;;;;;34.08;24.80;;;;;;;18.72;48.55;100237.19;5068394;28;20051;-76
2022/04/23 11:39:08;;;;;;;41.35;26.55;;;;;;;18.84;47.87;100233.88;5041283;28;20041;-68